createdAt,value
2023-04-14T00:00:04.078Z,7.60
2023-04-14T00:03:01.968Z,7.60
2023-04-14T00:05:31.298Z,7.80
2023-04-14T00:08:00.750Z,7.80
2023-04-14T00:10:48.852Z,7.30
2023-04-14T00:13:16.901Z,8.00
2023-04-14T00:15:45.064Z,12.90
2023-04-14T00:18:13.062Z,8.80
2023-04-14T00:20:41.199Z,9.00
2023-04-14T00:23:09.351Z,9.40
2023-04-14T00:25:37.360Z,9.30
2023-04-14T00:28:05.587Z,9.30
2023-04-14T00:30:33.582Z,9.90
2023-04-14T00:33:01.685Z,9.00
2023-04-14T00:35:32.692Z,13.70
2023-04-14T00:38:00.780Z,9.40
2023-04-14T00:40:31.069Z,8.00
2023-04-14T00:42:59.671Z,6.80
2023-04-14T00:45:28.504Z,5.80
2023-04-14T00:47:58.528Z,6.00
2023-04-14T00:50:47.512Z,5.70
2023-04-14T00:53:15.804Z,5.60
2023-04-14T00:55:43.995Z,6.00
2023-04-14T00:58:13.588Z,5.60
2023-04-14T01:00:42.164Z,7.20
2023-04-14T01:03:11.333Z,6.00
2023-04-14T01:05:39.340Z,5.70
2023-04-14T01:08:08.032Z,5.50
2023-04-14T01:10:45.818Z,5.20
2023-04-14T01:13:35.436Z,8.50
2023-04-14T01:16:18.302Z,8.60
2023-04-14T01:19:08.183Z,7.80
2023-04-14T01:21:41.453Z,6.90
2023-04-14T01:24:16.448Z,8.50
2023-04-14T01:26:45.821Z,6.70
2023-04-14T01:29:29.070Z,6.20
2023-04-14T01:32:05.711Z,5.20
2023-04-14T01:35:25.196Z,5.60
2023-04-14T01:38:03.730Z,5.80
2023-04-14T01:40:34.075Z,6.40
2023-04-14T01:43:06.126Z,5.80
2023-04-14T01:45:39.943Z,5.20
2023-04-14T01:48:08.576Z,5.10
2023-04-14T01:50:37.983Z,5.50
2023-04-14T01:53:08.848Z,5.40
2023-04-14T01:55:38.762Z,4.80
2023-04-14T01:58:09.139Z,4.60
2023-04-14T02:00:39.973Z,5.50
2023-04-14T02:03:08.932Z,4.70
2023-04-14T02:05:39.738Z,4.50
2023-04-14T02:08:12.642Z,5.40
2023-04-14T02:10:44.273Z,4.50
2023-04-14T02:13:13.982Z,5.10
2023-04-14T02:15:43.628Z,4.60
2023-04-14T02:18:12.014Z,5.10
2023-04-14T02:20:45.075Z,5.10
2023-04-14T02:23:14.418Z,4.20
2023-04-14T02:25:55.450Z,5.90
2023-04-14T02:28:29.348Z,5.00
2023-04-14T02:31:02.148Z,5.40
2023-04-14T02:33:37.007Z,5.20
2023-04-14T02:36:38.210Z,6.20
2023-04-14T02:39:21.128Z,5.80
2023-04-14T02:42:01.614Z,5.20
2023-04-14T02:44:34.526Z,5.40
2023-04-14T02:47:10.050Z,5.00
2023-04-14T02:49:45.089Z,5.10
2023-04-14T02:52:17.142Z,5.50
2023-04-14T02:54:47.757Z,8.40
2023-04-14T02:57:17.890Z,5.80
2023-04-14T03:00:08.315Z,7.00
2023-04-14T03:03:00.372Z,10.50
2023-04-14T03:05:49.764Z,7.10
2023-04-14T03:08:20.079Z,7.40
2023-04-14T03:10:53.133Z,8.80
2023-04-14T03:13:28.966Z,7.70
2023-04-14T03:15:58.584Z,6.00
2023-04-14T03:18:29.677Z,6.20
2023-04-14T03:21:01.907Z,7.30
2023-04-14T03:23:32.985Z,6.40
2023-04-14T03:26:04.692Z,8.50
2023-04-14T03:28:37.537Z,8.90
2023-04-14T03:31:09.002Z,9.00
2023-04-14T03:33:48.910Z,12.00
2023-04-14T03:36:20.316Z,8.40
2023-04-14T03:38:50.041Z,10.20
2023-04-14T03:41:21.474Z,10.30
2023-04-14T03:43:54.826Z,12.90
2023-04-14T03:46:28.545Z,12.20
2023-04-14T03:49:00.189Z,10.70
2023-04-14T03:51:32.298Z,10.80
2023-04-14T03:54:24.288Z,9.60
2023-04-14T03:57:15.392Z,12.10
2023-04-14T03:59:45.217Z,10.20
2023-04-14T04:02:14.646Z,9.50
2023-04-14T04:04:44.270Z,10.30
2023-04-14T04:07:14.020Z,12.90
2023-04-14T04:09:43.461Z,12.10
2023-04-14T04:12:13.331Z,11.80
2023-04-14T04:14:42.009Z,12.90
2023-04-14T04:17:13.871Z,14.20
2023-04-14T04:19:44.876Z,9.50
2023-04-14T04:22:18.770Z,10.50
2023-04-14T04:24:48.982Z,10.70
2023-04-14T04:27:28.044Z,11.40
2023-04-14T04:29:59.487Z,10.40
2023-04-14T04:32:29.227Z,10.80
2023-04-14T04:34:59.209Z,11.10
2023-04-14T04:37:29.017Z,10.00
2023-04-14T04:39:58.403Z,10.80
2023-04-14T04:42:26.818Z,8.70
2023-04-14T04:44:56.231Z,9.70
2023-04-14T04:47:24.268Z,12.20
2023-04-14T04:49:52.250Z,9.60
2023-04-14T04:52:20.323Z,7.40
2023-04-14T04:54:52.420Z,8.00
2023-04-14T04:57:20.695Z,10.70
2023-04-14T05:00:29.468Z,8.20
2023-04-14T05:03:37.771Z,7.00
2023-04-14T05:06:06.034Z,7.90
2023-04-14T05:08:34.148Z,8.80
2023-04-14T05:11:02.249Z,10.00
2023-04-14T05:13:50.377Z,10.00
2023-04-14T05:16:18.740Z,11.20
2023-04-14T05:18:46.867Z,8.50
2023-04-14T05:21:15.635Z,11.00
2023-04-14T05:24:04.788Z,13.90
2023-04-14T05:27:14.677Z,11.50
2023-04-14T05:30:42.947Z,10.40
2023-04-14T05:33:11.582Z,8.40
2023-04-14T05:35:40.306Z,11.30
2023-04-14T05:38:08.216Z,7.80
2023-04-14T05:40:36.146Z,7.20
2023-04-14T05:43:25.055Z,10.70
2023-04-14T05:46:13.140Z,10.50
2023-04-14T05:48:41.126Z,11.50
2023-04-14T05:51:09.006Z,9.40
2023-04-14T05:54:17.230Z,10.90
2023-04-14T05:56:45.386Z,11.10
2023-04-14T05:59:13.395Z,10.70
2023-04-14T06:01:41.757Z,14.40
2023-04-14T06:04:10.846Z,12.40
2023-04-14T06:06:40.013Z,11.10
2023-04-14T06:09:08.077Z,11.50
2023-04-14T06:11:36.815Z,12.90
2023-04-14T06:14:07.342Z,13.90
2023-04-14T06:16:35.663Z,10.90
2023-04-14T06:19:03.977Z,11.20
2023-04-14T06:21:32.395Z,12.30
2023-04-14T06:24:00.362Z,9.70
2023-04-14T06:26:28.577Z,12.70
2023-04-14T06:28:57.577Z,15.20
2023-04-14T06:31:25.825Z,12.90
2023-04-14T06:33:54.102Z,18.40
2023-04-14T06:36:22.059Z,14.00
2023-04-14T06:38:50.361Z,8.20
2023-04-14T06:41:18.277Z,8.20
2023-04-14T06:44:47.074Z,9.10
2023-04-14T06:58:52.337Z,9.10
2023-04-14T07:02:01.506Z,8.00
2023-04-14T07:04:31.153Z,6.80
2023-04-14T07:08:02.123Z,6.00
2023-04-14T07:11:11.801Z,6.40
2023-04-14T07:14:00.326Z,13.60
2023-04-14T07:16:28.535Z,7.60
2023-04-14T07:19:16.838Z,6.70
2023-04-14T07:22:26.738Z,6.40
2023-04-14T07:43:55.371Z,5.70
2023-04-14T07:48:03.449Z,6.30
2023-04-14T08:02:35.437Z,5.80
2023-04-14T08:05:44.361Z,7.40
2023-04-14T08:08:52.549Z,8.60
2023-04-14T08:12:00.969Z,6.30
2023-04-14T08:14:50.209Z,6.40
2023-04-14T08:17:58.666Z,6.40
2023-04-14T08:20:27.669Z,4.80
2023-04-14T08:22:57.150Z,6.00
2023-04-14T08:25:25.098Z,6.30
2023-04-14T08:27:53.420Z,12.70
2023-04-14T08:30:24.266Z,4.90
2023-04-14T08:33:12.899Z,5.00
2023-04-14T08:39:48.839Z,7.20
2023-04-14T08:42:56.859Z,7.40
2023-04-14T08:45:46.181Z,6.80
2023-04-14T08:48:54.538Z,9.90
2023-04-14T08:51:43.998Z,10.20
2023-04-14T08:54:32.876Z,9.50
2023-04-14T09:37:23.242Z,6.10
2023-04-14T09:40:12.110Z,5.50
2023-04-14T09:43:01.059Z,37.20
2023-04-14T09:45:56.010Z,6.70
2023-04-14T09:48:25.459Z,9.70
2023-04-14T09:51:09.908Z,4.50
2023-04-14T09:53:40.389Z,12.00
2023-04-14T09:56:10.625Z,6.20
2023-04-14T09:58:40.975Z,4.00
2023-04-14T10:01:19.445Z,4.10
2023-04-14T10:03:49.385Z,10.00
2023-04-14T10:06:19.480Z,12.60
2023-04-14T10:08:49.692Z,12.50
2023-04-14T10:11:20.112Z,5.70
2023-04-14T10:13:55.946Z,9.40
2023-04-14T10:16:24.873Z,8.40
2023-04-14T10:18:54.740Z,8.60
2023-04-14T10:21:23.176Z,10.40
2023-04-14T10:23:52.234Z,4.60
2023-04-14T10:26:20.911Z,9.00
2023-04-14T10:28:56.697Z,5.80
2023-04-14T10:31:38.773Z,4.40
2023-04-14T10:34:11.507Z,12.40
2023-04-14T10:36:40.464Z,4.00
2023-04-14T10:39:11.017Z,9.60
2023-04-14T10:41:47.978Z,4.90
2023-04-14T10:44:25.429Z,4.50
2023-04-14T10:46:56.581Z,4.70
2023-04-14T10:49:49.316Z,5.10
2023-04-14T10:52:17.238Z,14.90
2023-04-14T10:55:08.923Z,5.70
2023-04-14T10:57:47.032Z,5.90
2023-04-14T11:00:22.697Z,8.00
2023-04-14T11:03:11.232Z,8.60
2023-04-14T11:05:52.290Z,9.30
2023-04-14T11:08:36.377Z,14.90
2023-04-14T11:11:06.756Z,5.20
2023-04-14T11:13:35.396Z,5.70
2023-04-14T11:16:05.938Z,5.40
2023-04-14T11:18:38.698Z,3.70
2023-04-14T11:21:09.033Z,5.90
2023-04-14T11:23:38.561Z,6.00
2023-04-14T11:26:08.545Z,4.30
2023-04-14T11:28:38.756Z,5.20
2023-04-14T11:31:08.871Z,4.00
2023-04-14T11:33:38.955Z,5.30
2023-04-14T11:36:07.978Z,6.10
2023-04-14T11:38:46.149Z,6.60
2023-04-14T11:41:15.763Z,4.70
2023-04-14T11:43:47.050Z,6.00
2023-04-14T11:46:18.369Z,4.50
2023-04-14T11:48:46.335Z,4.30
2023-04-14T11:51:14.547Z,5.50
2023-04-14T11:53:43.437Z,7.30
2023-04-14T11:56:13.017Z,6.60
2023-04-14T11:58:42.204Z,6.50
2023-04-14T12:01:14.376Z,8.20
2023-04-14T12:03:42.777Z,9.30
2023-04-14T12:06:10.909Z,11.10
2023-04-14T12:08:39.035Z,6.90
2023-04-14T12:11:14.697Z,6.80
2023-04-14T12:13:43.990Z,7.90
2023-04-14T12:16:13.507Z,5.30
2023-04-14T12:18:42.316Z,4.70
2023-04-14T12:21:11.987Z,5.20
2023-04-14T12:23:41.662Z,6.20
2023-04-14T12:26:12.147Z,6.00
2023-04-14T12:28:42.152Z,4.70
2023-04-14T12:31:10.906Z,5.70
2023-04-14T12:33:39.018Z,6.10
2023-04-14T12:36:11.638Z,5.40
2023-04-14T12:38:39.859Z,4.90
2023-04-14T12:41:07.875Z,4.70
2023-04-14T12:43:37.555Z,7.50
2023-04-14T12:46:06.253Z,4.20
2023-04-14T12:48:48.716Z,8.30
2023-04-14T12:51:18.591Z,7.30
2023-04-14T12:53:47.993Z,5.70
2023-04-14T12:56:22.392Z,7.10
2023-04-14T12:58:51.487Z,5.50
2023-04-14T13:01:21.168Z,4.60
2023-04-14T13:03:56.021Z,5.90
2023-04-14T13:06:25.130Z,7.60
2023-04-14T13:08:54.372Z,5.40
2023-04-14T13:11:23.844Z,6.40
2023-04-14T13:13:53.454Z,4.80
2023-04-14T13:16:22.311Z,4.30
2023-04-14T13:18:51.123Z,6.30
2023-04-14T13:21:19.444Z,6.70
2023-04-14T13:23:47.474Z,4.10
2023-04-14T13:26:15.513Z,4.90
2023-04-14T13:28:43.490Z,3.70
2023-04-14T13:31:13.276Z,6.30
2023-04-14T13:33:41.473Z,6.60
2023-04-14T13:36:09.654Z,4.10
2023-04-14T13:38:37.740Z,4.50
2023-04-14T13:41:05.925Z,3.60
2023-04-14T13:43:36.180Z,6.40
2023-04-14T13:46:04.769Z,3.80
2023-04-14T13:48:33.286Z,4.10
2023-04-14T13:51:02.041Z,3.70
2023-04-14T13:53:30.125Z,3.40
2023-04-14T13:55:58.187Z,5.60
2023-04-14T13:58:26.372Z,3.60
2023-04-14T14:00:55.453Z,3.80
2023-04-14T14:03:25.341Z,3.70
2023-04-14T14:05:53.803Z,4.70
2023-04-14T14:08:21.744Z,3.60
2023-04-14T14:10:49.846Z,6.20
2023-04-14T14:13:18.640Z,5.50
2023-04-14T14:15:47.879Z,7.50
2023-04-14T14:18:16.736Z,4.70
2023-04-14T14:20:44.847Z,3.60
2023-04-14T14:23:13.155Z,5.20
2023-04-14T14:25:42.150Z,3.90
2023-04-14T14:28:10.037Z,3.90
2023-04-14T14:30:38.232Z,5.90
2023-04-14T14:33:06.152Z,6.90
2023-04-14T14:35:34.267Z,4.30
2023-04-14T14:38:02.255Z,5.80
2023-04-14T14:40:30.588Z,9.10
2023-04-14T14:42:58.583Z,6.20
2023-04-14T14:45:30.983Z,4.20
2023-04-14T14:48:00.177Z,5.10
2023-04-14T14:50:28.266Z,5.30
2023-04-14T14:52:57.093Z,3.50
2023-04-14T14:55:25.200Z,7.20
2023-04-14T14:57:53.324Z,5.60
2023-04-14T15:00:21.380Z,5.20
2023-04-14T15:02:49.657Z,5.20
2023-04-14T15:05:18.135Z,5.80
2023-04-14T15:07:46.197Z,4.70
2023-04-14T15:10:14.936Z,3.80
2023-04-14T15:12:42.946Z,2.80
2023-04-14T15:15:11.520Z,5.00
2023-04-14T15:17:39.492Z,5.10
2023-04-14T15:20:08.393Z,6.30
2023-04-14T15:22:36.529Z,4.70
2023-04-14T15:25:05.202Z,1.80
2023-04-14T15:27:33.149Z,3.30
2023-04-14T15:30:01.522Z,2.80
2023-04-14T15:32:29.618Z,2.70
2023-04-14T15:34:57.711Z,3.60
2023-04-14T15:37:26.451Z,2.90
2023-04-14T15:39:55.379Z,2.20
2023-04-14T15:42:23.585Z,6.20
2023-04-14T15:44:51.907Z,1.60
2023-04-14T15:47:19.970Z,1.20
2023-04-14T15:49:49.997Z,2.80
2023-04-14T15:52:21.258Z,1.20
2023-04-14T15:55:12.247Z,5.30
2023-04-14T15:58:00.974Z,2.20
2023-04-14T16:00:29.105Z,1.70
2023-04-14T16:02:57.279Z,2.80
2023-04-14T16:05:25.868Z,2.90
2023-04-14T16:07:54.310Z,1.80
2023-04-14T16:10:22.612Z,1.30
2023-04-14T16:13:10.745Z,1.20
2023-04-14T16:15:40.995Z,3.80
2023-04-14T16:18:10.496Z,1.60
2023-04-14T16:20:38.644Z,3.90
2023-04-14T16:23:06.836Z,3.00
2023-04-14T16:25:35.082Z,2.30
2023-04-14T16:28:11.890Z,2.00
2023-04-14T16:31:03.065Z,3.40
2023-04-14T16:33:34.012Z,1.90
2023-04-14T16:36:07.453Z,1.90
2023-04-14T16:38:35.640Z,2.60
2023-04-14T16:41:03.773Z,1.80
2023-04-14T16:43:32.030Z,3.50
2023-04-14T16:46:04.485Z,3.50
2023-04-14T16:48:33.232Z,1.50
2023-04-14T16:51:05.630Z,1.90
2023-04-14T16:53:34.790Z,2.90
2023-04-14T16:56:09.943Z,2.00
2023-04-14T16:58:39.002Z,1.60
2023-04-14T17:01:07.754Z,2.20
2023-04-14T17:03:36.844Z,2.40
2023-04-14T17:06:05.412Z,3.50
2023-04-14T17:08:34.232Z,1.60
2023-04-14T17:11:02.332Z,1.90
2023-04-14T17:13:30.291Z,1.70
2023-04-14T17:16:08.328Z,2.00
2023-04-14T17:18:38.440Z,3.70
2023-04-14T17:21:07.231Z,3.20
2023-04-14T17:23:37.327Z,3.20
2023-04-14T17:26:05.900Z,2.30
2023-04-14T17:28:35.695Z,2.00
2023-04-14T17:31:12.751Z,1.80
2023-04-14T17:33:42.204Z,2.10
2023-04-14T17:36:14.157Z,1.70
2023-04-14T17:38:42.933Z,2.00
2023-04-14T17:41:12.847Z,1.70
2023-04-14T17:43:41.860Z,1.90
2023-04-14T17:46:10.942Z,1.60
2023-04-14T17:48:39.237Z,2.40
2023-04-14T17:51:07.331Z,8.70
2023-04-14T17:53:35.532Z,3.80
2023-04-14T17:56:03.526Z,4.20
2023-04-14T17:58:31.922Z,2.30
2023-04-14T18:01:00.126Z,3.50
2023-04-14T18:03:28.880Z,4.30
2023-04-14T18:05:57.002Z,2.50
2023-04-14T18:08:24.989Z,3.00
2023-04-14T18:10:53.010Z,2.20
2023-04-14T18:13:21.162Z,3.20
2023-04-14T18:15:49.994Z,2.40
2023-04-14T18:18:18.031Z,5.40
2023-04-14T18:20:50.118Z,5.60
2023-04-14T18:23:19.127Z,9.50
2023-04-14T18:28:18.398Z,5.80
2023-04-14T18:30:59.543Z,6.50
2023-04-14T18:33:28.380Z,7.10
2023-04-14T18:35:58.007Z,7.50
2023-04-14T18:38:27.502Z,3.70
2023-04-14T18:41:02.477Z,3.10
2023-04-14T18:43:32.603Z,3.40
2023-04-14T18:46:00.654Z,6.90
2023-04-14T18:48:28.886Z,6.10
2023-04-14T18:51:02.532Z,5.50
2023-04-14T18:53:30.567Z,4.30
2023-04-14T18:55:58.523Z,5.00
2023-04-14T18:58:26.870Z,5.40
2023-04-14T19:00:56.414Z,4.10
2023-04-14T19:03:24.856Z,3.70
2023-04-14T19:05:55.370Z,3.80
2023-04-14T19:08:25.385Z,3.90
2023-04-14T19:10:53.796Z,8.80
2023-04-14T19:13:22.292Z,10.20
2023-04-14T19:15:50.368Z,5.30
2023-04-14T19:18:19.869Z,4.70
2023-04-14T19:20:49.660Z,5.50
2023-04-14T19:23:17.934Z,13.90
2023-04-14T19:25:45.955Z,6.10
2023-04-14T19:28:16.905Z,6.60
2023-04-14T19:30:45.986Z,5.10
2023-04-14T19:33:15.614Z,6.40
2023-04-14T19:35:46.828Z,3.10
2023-04-14T19:38:15.481Z,3.70
2023-04-14T19:40:53.092Z,3.70
2023-04-14T19:43:21.108Z,3.40
2023-04-14T19:45:53.163Z,3.80
2023-04-14T19:48:23.859Z,3.30
2023-04-14T19:50:57.032Z,2.90
2023-04-14T19:53:25.411Z,2.90
2023-04-14T19:55:56.996Z,7.00
2023-04-14T19:58:28.978Z,2.20
2023-04-14T20:01:01.103Z,3.20
2023-04-14T20:03:30.107Z,2.80
2023-04-14T20:06:00.038Z,2.70
2023-04-14T20:08:28.333Z,2.80
2023-04-14T20:10:56.455Z,2.40
2023-04-14T20:13:27.550Z,2.40
2023-04-14T20:15:56.374Z,2.20
2023-04-14T20:18:26.050Z,2.80
2023-04-14T20:20:56.590Z,4.30
2023-04-14T20:23:26.165Z,2.30
2023-04-14T20:25:56.057Z,5.10
2023-04-14T20:28:26.211Z,5.10
2023-04-14T20:30:54.945Z,3.10
2023-04-14T20:33:23.024Z,3.20
2023-04-14T20:35:54.526Z,3.30
2023-04-14T20:38:22.966Z,2.90
2023-04-14T20:40:51.696Z,3.00
2023-04-14T20:43:20.090Z,2.80
2023-04-14T20:45:49.988Z,3.90
2023-04-14T20:48:18.566Z,3.00
2023-04-14T20:50:49.732Z,2.90
2023-04-14T20:53:21.133Z,2.80
2023-04-14T20:55:49.054Z,3.20
2023-04-14T20:58:16.986Z,3.40
2023-04-14T21:00:45.520Z,2.60
2023-04-14T21:03:13.690Z,5.20
2023-04-14T21:05:42.264Z,2.30
2023-04-14T21:08:10.188Z,2.60
2023-04-14T21:11:14.314Z,2.70
2023-04-14T21:15:30.884Z,3.00
2023-04-14T21:16:15.801Z,2.60
2023-04-14T21:18:43.756Z,2.80
2023-04-14T21:21:12.434Z,5.10
2023-04-14T21:23:41.198Z,2.60
2023-04-14T21:26:09.189Z,3.00
2023-04-14T21:28:38.311Z,3.20
2023-04-14T21:31:06.792Z,2.90
2023-04-14T21:33:35.043Z,3.70
2023-04-14T21:36:03.076Z,2.80
2023-04-14T21:38:31.036Z,3.20
2023-04-14T21:40:59.286Z,4.10
2023-04-14T21:43:27.640Z,2.70
2023-04-14T21:45:56.209Z,4.00
2023-04-14T21:48:24.352Z,5.30
2023-04-14T21:50:52.414Z,3.60
2023-04-14T21:53:20.799Z,3.40
2023-04-14T21:55:58.635Z,3.30
2023-04-14T21:58:39.394Z,3.30
2023-04-14T22:01:10.208Z,3.70
2023-04-14T22:03:40.756Z,4.20
2023-04-14T22:06:29.582Z,3.30
2023-04-14T22:08:57.567Z,3.00
2023-04-14T22:11:25.829Z,3.80
2023-04-14T22:13:55.106Z,3.40
2023-04-14T22:16:23.121Z,3.40
2023-04-14T22:18:51.516Z,4.80
2023-04-14T22:21:20.000Z,3.70
2023-04-14T22:23:48.427Z,3.40
2023-04-14T22:26:16.812Z,5.90
2023-04-14T22:28:44.762Z,5.00
2023-04-14T22:31:13.408Z,4.50
2023-04-14T22:33:42.045Z,4.70
2023-04-14T22:36:10.082Z,5.80
2023-04-14T22:38:38.035Z,6.70
2023-04-14T22:41:06.038Z,5.70
2023-04-14T22:43:33.942Z,4.80
2023-04-14T22:46:02.031Z,4.10
2023-04-14T22:48:30.071Z,3.90
2023-04-14T22:50:58.153Z,3.00
2023-04-14T22:53:26.645Z,3.60
2023-04-14T22:55:54.690Z,3.50
2023-04-14T22:58:24.167Z,2.10
2023-04-14T23:00:52.742Z,2.70
2023-04-14T23:03:20.771Z,2.00
2023-04-14T23:05:49.421Z,2.00
2023-04-14T23:08:17.323Z,2.60
2023-04-14T23:10:45.360Z,1.60
2023-04-14T23:13:13.431Z,2.40
2023-04-14T23:15:41.729Z,2.00
2023-04-14T23:18:09.706Z,2.50
2023-04-14T23:20:38.819Z,2.60
2023-04-14T23:23:12.278Z,2.50
2023-04-14T23:25:40.947Z,3.20
2023-04-14T23:28:10.021Z,4.90
2023-04-14T23:30:38.238Z,4.60
2023-04-14T23:33:06.949Z,4.30
2023-04-14T23:35:35.990Z,7.00
2023-04-14T23:38:04.253Z,5.00
2023-04-14T23:40:33.946Z,5.00
2023-04-14T23:43:02.071Z,3.50
2023-04-14T23:45:36.956Z,8.40
2023-04-14T23:48:06.660Z,4.70
2023-04-14T23:51:00.375Z,4.50
2023-04-14T23:53:22.964Z,6.10
2023-04-14T23:55:51.576Z,4.40
2023-04-14T23:58:26.417Z,4.00
